createdAt,value
2019-03-31T00:00:00.667Z,46.10
2019-03-31T00:01:13.059Z,46.20
2019-03-31T00:02:21.593Z,46.30
2019-03-31T00:03:29.651Z,46.40
2019-03-31T00:04:38.750Z,46.50
2019-03-31T00:05:46.787Z,46.50
2019-03-31T00:06:54.837Z,46.50
2019-03-31T00:08:02.945Z,46.40
2019-03-31T00:09:11.178Z,46.50
2019-03-31T00:10:19.189Z,46.50
2019-03-31T00:11:27.208Z,46.60
2019-03-31T00:12:35.238Z,46.60
2019-03-31T00:13:43.262Z,46.60
2019-03-31T00:14:51.292Z,46.70
2019-03-31T00:15:59.290Z,46.70
2019-03-31T00:17:07.344Z,46.70
2019-03-31T00:18:15.345Z,46.80
2019-03-31T00:19:24.471Z,46.70
2019-03-31T00:20:32.485Z,46.80
2019-03-31T00:21:40.517Z,46.80
2019-03-31T00:22:48.526Z,46.70
2019-03-31T00:23:56.561Z,46.80
2019-03-31T00:25:04.819Z,46.90
2019-03-31T00:26:12.814Z,46.80
2019-03-31T00:27:21.850Z,46.90
2019-03-31T00:28:29.886Z,46.90
2019-03-31T00:29:37.938Z,46.80
2019-03-31T00:30:45.960Z,46.90
2019-03-31T00:31:53.995Z,46.80
2019-03-31T00:33:02.018Z,46.80
2019-03-31T00:34:11.523Z,46.90
2019-03-31T00:35:19.623Z,46.80
2019-03-31T00:36:27.847Z,46.90
2019-03-31T00:37:35.911Z,46.90
2019-03-31T00:38:43.938Z,46.80
2019-03-31T00:39:51.940Z,46.90
2019-03-31T00:40:59.946Z,46.90
2019-03-31T00:42:07.966Z,46.90
2019-03-31T00:43:16.033Z,47.00
2019-03-31T00:44:24.056Z,47.00
2019-03-31T00:45:32.074Z,47.10
2019-03-31T00:46:40.099Z,47.00
2019-03-31T00:47:48.135Z,47.20
2019-03-31T00:48:56.209Z,47.00
2019-03-31T00:50:04.246Z,47.10
2019-03-31T00:51:12.287Z,47.10
2019-03-31T00:52:20.417Z,47.10
2019-03-31T00:53:28.444Z,47.10
2019-03-31T00:54:36.479Z,47.10
2019-03-31T00:55:44.487Z,47.20
2019-03-31T00:56:52.540Z,47.20
2019-03-31T00:58:00.647Z,47.20
2019-03-31T00:59:08.652Z,47.30
2019-03-31T01:00:42.297Z,47.20
2019-03-31T01:01:58.153Z,47.30
2019-03-31T01:03:07.914Z,47.20
2019-03-31T01:04:17.614Z,47.30
2019-03-31T01:05:25.631Z,47.30
2019-03-31T01:06:34.311Z,47.40
2019-03-31T01:07:42.741Z,47.30
2019-03-31T01:08:52.124Z,47.30
2019-03-31T01:10:00.410Z,47.40
2019-03-31T01:11:17.266Z,47.40
2019-03-31T01:12:28.248Z,47.50
2019-03-31T01:13:36.316Z,47.40
2019-03-31T01:14:45.384Z,47.50
2019-03-31T01:15:57.924Z,47.40
2019-03-31T01:17:09.098Z,47.50
2019-03-31T01:18:17.412Z,47.40
2019-03-31T01:19:25.766Z,47.40
2019-03-31T01:20:33.799Z,47.40
2019-03-31T01:21:41.942Z,47.50
2019-03-31T01:22:49.977Z,47.40
2019-03-31T01:23:58.071Z,47.40
2019-03-31T01:25:07.847Z,47.40
2019-03-31T01:26:18.584Z,47.40
2019-03-31T01:27:26.792Z,47.40
2019-03-31T01:28:34.825Z,47.40
2019-03-31T01:29:42.886Z,47.60
2019-03-31T01:30:51.062Z,47.60
2019-03-31T01:32:00.255Z,47.60
2019-03-31T01:33:08.599Z,47.60
2019-03-31T01:34:16.697Z,47.60
2019-03-31T01:35:25.125Z,47.70
2019-03-31T01:36:33.141Z,47.70
2019-03-31T01:37:41.191Z,47.80
2019-03-31T01:38:49.244Z,47.80
2019-03-31T01:39:57.534Z,47.80
2019-03-31T01:41:05.946Z,47.80
2019-03-31T01:42:13.997Z,47.90
2019-03-31T01:43:22.022Z,47.80
2019-03-31T01:44:30.190Z,47.90
2019-03-31T01:45:38.224Z,47.80
2019-03-31T01:46:46.274Z,47.90
2019-03-31T01:47:54.317Z,47.80
2019-03-31T01:49:02.363Z,47.90
2019-03-31T01:50:14.523Z,47.90
2019-03-31T01:51:22.589Z,48.00
2019-03-31T01:52:30.613Z,47.90
2019-03-31T01:53:38.647Z,47.90
2019-03-31T01:54:46.710Z,48.00
2019-03-31T01:55:54.760Z,48.10
2019-03-31T01:57:02.788Z,48.00
2019-03-31T01:58:11.080Z,48.00
2019-03-31T01:59:19.138Z,48.00
2019-03-31T02:00:46.124Z,48.00
2019-03-31T02:02:04.140Z,48.00
2019-03-31T02:03:03.830Z,47.90
2019-03-31T02:04:12.976Z,47.90
2019-03-31T02:05:20.995Z,47.90
2019-03-31T02:06:29.048Z,47.90
2019-03-31T02:07:37.546Z,48.00
2019-03-31T02:08:45.597Z,48.00
2019-03-31T02:09:53.893Z,48.00
2019-03-31T02:11:02.991Z,48.20
2019-03-31T02:12:11.085Z,48.20
2019-03-31T02:13:19.093Z,49.00
2019-03-31T02:14:27.112Z,48.30
2019-03-31T02:15:35.256Z,49.10
2019-03-31T02:16:43.288Z,49.20
2019-03-31T02:17:51.520Z,49.20
2019-03-31T02:18:59.570Z,49.20
2019-03-31T02:20:08.565Z,49.20
2019-03-31T02:21:16.587Z,49.20
2019-03-31T02:22:24.623Z,49.20
2019-03-31T02:23:32.706Z,49.20
2019-03-31T02:24:42.376Z,49.10
2019-03-31T02:25:51.896Z,49.20
2019-03-31T02:26:59.976Z,49.10
2019-03-31T02:28:07.996Z,49.20
2019-03-31T02:29:16.018Z,49.20
2019-03-31T02:30:24.046Z,49.10
2019-03-31T02:31:32.056Z,49.10
2019-03-31T02:32:40.064Z,49.20
2019-03-31T02:33:48.071Z,49.10
2019-03-31T02:34:56.137Z,49.10
2019-03-31T02:36:04.174Z,49.20
2019-03-31T02:37:12.177Z,49.20
2019-03-31T02:38:20.275Z,49.20
2019-03-31T02:39:28.278Z,49.30
2019-03-31T02:40:36.301Z,49.30
2019-03-31T02:41:44.319Z,49.40
2019-03-31T02:42:53.839Z,49.40
2019-03-31T02:44:01.820Z,49.40
2019-03-31T02:45:10.453Z,49.40
2019-03-31T02:46:19.210Z,49.40
2019-03-31T02:47:27.573Z,49.40
2019-03-31T02:48:35.594Z,49.50
2019-03-31T02:49:43.609Z,49.50
2019-03-31T02:50:53.301Z,49.50
2019-03-31T02:52:01.381Z,49.50
2019-03-31T02:53:09.417Z,49.50
2019-03-31T02:54:17.423Z,49.50
2019-03-31T02:55:25.564Z,50.00
2019-03-31T02:56:34.169Z,49.60
2019-03-31T02:57:43.436Z,49.60
2019-03-31T02:58:52.495Z,49.60
2019-03-31T03:00:02.681Z,49.70
2019-03-31T03:01:12.541Z,49.70
2019-03-31T03:02:40.142Z,49.70
2019-03-31T03:03:35.482Z,49.70
2019-03-31T03:04:46.255Z,49.60
2019-03-31T03:05:56.762Z,49.60
2019-03-31T03:07:06.192Z,49.90
2019-03-31T03:08:17.397Z,49.70
2019-03-31T03:09:28.992Z,49.70
2019-03-31T03:10:38.010Z,49.80
2019-03-31T03:11:47.217Z,49.80
2019-03-31T03:12:56.663Z,49.80
2019-03-31T03:14:06.470Z,49.80
2019-03-31T03:15:20.467Z,49.80
2019-03-31T03:16:28.749Z,49.70
2019-03-31T03:17:37.880Z,49.80
2019-03-31T03:18:46.502Z,49.90
2019-03-31T03:19:54.717Z,49.90
2019-03-31T03:21:02.738Z,49.90
2019-03-31T03:22:11.839Z,49.90
2019-03-31T03:23:19.875Z,50.00
2019-03-31T03:24:27.912Z,49.90
2019-03-31T03:25:35.902Z,50.00
2019-03-31T03:26:45.740Z,49.80
2019-03-31T03:27:53.776Z,49.90
2019-03-31T03:29:01.811Z,50.40
2019-03-31T03:30:10.006Z,49.90
2019-03-31T03:31:18.361Z,49.80
2019-03-31T03:32:26.318Z,49.90
2019-03-31T03:33:34.408Z,50.10
2019-03-31T03:34:42.439Z,50.10
2019-03-31T03:35:50.467Z,50.10
2019-03-31T03:36:58.497Z,50.10
2019-03-31T03:38:06.533Z,50.10
2019-03-31T03:39:14.567Z,50.10
2019-03-31T03:40:22.587Z,50.10
2019-03-31T03:41:30.631Z,50.00
2019-03-31T03:42:38.586Z,50.00
2019-03-31T03:43:55.201Z,50.10
2019-03-31T03:44:56.322Z,50.10
2019-03-31T03:46:05.969Z,50.00
2019-03-31T03:47:13.939Z,50.00
2019-03-31T03:48:21.959Z,50.10
2019-03-31T03:49:29.995Z,50.10
2019-03-31T03:50:38.032Z,50.10
2019-03-31T03:51:46.039Z,50.10
2019-03-31T03:52:54.074Z,50.10
2019-03-31T03:54:02.098Z,50.20
2019-03-31T03:55:10.207Z,50.20
2019-03-31T03:56:18.274Z,50.20
2019-03-31T03:57:26.308Z,50.30
2019-03-31T03:58:34.326Z,50.40
2019-03-31T03:59:42.489Z,50.30
2019-03-31T04:00:50.677Z,50.40
2019-03-31T04:01:58.740Z,50.50
2019-03-31T04:03:06.771Z,50.40
2019-03-31T04:04:14.762Z,50.40
2019-03-31T04:05:22.785Z,50.40
2019-03-31T04:06:30.793Z,50.40
2019-03-31T04:07:38.810Z,50.50
2019-03-31T04:08:47.746Z,50.50
2019-03-31T04:09:55.783Z,50.50
2019-03-31T04:11:21.555Z,50.50
2019-03-31T04:12:29.120Z,50.60
2019-03-31T04:13:37.168Z,50.50
2019-03-31T04:14:45.194Z,50.50
2019-03-31T04:15:53.222Z,50.50
2019-03-31T04:17:01.241Z,50.60
2019-03-31T04:18:09.268Z,50.50
2019-03-31T04:19:17.289Z,50.60
2019-03-31T04:20:25.323Z,50.70
2019-03-31T04:21:33.346Z,50.70
2019-03-31T04:22:41.368Z,50.70
2019-03-31T04:23:49.360Z,50.70
2019-03-31T04:24:57.361Z,50.70
2019-03-31T04:26:05.399Z,50.70
2019-03-31T04:27:13.408Z,50.70
2019-03-31T04:28:21.518Z,51.30
2019-03-31T04:29:29.547Z,50.80
2019-03-31T04:30:38.031Z,50.70
2019-03-31T04:31:46.072Z,50.80
2019-03-31T04:32:54.094Z,50.70
2019-03-31T04:34:02.100Z,50.80
2019-03-31T04:35:10.135Z,50.80
2019-03-31T04:36:18.155Z,50.80
2019-03-31T04:37:26.181Z,50.90
2019-03-31T04:38:34.185Z,50.50
2019-03-31T04:39:42.188Z,50.90
2019-03-31T04:40:50.198Z,50.90
2019-03-31T04:41:58.353Z,51.00
2019-03-31T04:43:06.400Z,50.90
2019-03-31T04:44:14.406Z,51.00
2019-03-31T04:45:22.436Z,50.90
2019-03-31T04:46:30.451Z,50.90
2019-03-31T04:47:38.469Z,51.40
2019-03-31T04:48:46.519Z,50.90
2019-03-31T04:49:54.526Z,51.10
2019-03-31T04:51:02.531Z,51.00
2019-03-31T04:52:10.566Z,51.10
2019-03-31T04:53:18.574Z,51.60
2019-03-31T04:54:26.592Z,51.00
2019-03-31T04:55:34.651Z,51.10
2019-03-31T04:56:42.680Z,51.00
2019-03-31T04:57:50.702Z,51.10
2019-03-31T04:58:58.725Z,51.00
2019-03-31T05:00:06.910Z,51.00
2019-03-31T05:01:14.944Z,51.00
2019-03-31T05:02:27.212Z,51.00
2019-03-31T05:03:34.016Z,51.10
2019-03-31T05:04:42.006Z,51.10
2019-03-31T05:05:50.107Z,51.70
2019-03-31T05:06:58.215Z,51.10
2019-03-31T05:08:06.276Z,51.10
2019-03-31T05:09:15.111Z,51.00
2019-03-31T05:10:25.591Z,51.10
2019-03-31T05:11:33.599Z,51.10
2019-03-31T05:12:41.677Z,51.00
2019-03-31T05:13:49.713Z,51.00
2019-03-31T05:14:57.739Z,51.00
2019-03-31T05:16:05.965Z,51.10
2019-03-31T05:17:13.970Z,51.10
2019-03-31T05:18:22.966Z,51.20
2019-03-31T05:19:30.987Z,51.30
2019-03-31T05:20:38.994Z,51.20
2019-03-31T05:21:47.015Z,51.30
2019-03-31T05:22:56.072Z,51.20
2019-03-31T05:24:04.081Z,51.20
2019-03-31T05:25:12.142Z,51.20
2019-03-31T05:26:20.088Z,51.30
2019-03-31T05:27:28.109Z,51.30
2019-03-31T05:28:36.129Z,51.40
2019-03-31T05:29:44.181Z,51.40
2019-03-31T05:30:52.222Z,51.40
2019-03-31T05:32:00.254Z,51.40
2019-03-31T05:33:08.248Z,51.60
2019-03-31T05:34:19.319Z,51.50
2019-03-31T05:35:27.222Z,51.50
2019-03-31T05:36:35.346Z,51.50
2019-03-31T05:37:50.767Z,51.50
2019-03-31T05:38:53.098Z,51.60
2019-03-31T05:40:01.121Z,51.60
2019-03-31T05:41:09.114Z,51.60
2019-03-31T05:42:17.191Z,51.70
2019-03-31T05:43:25.197Z,51.80
2019-03-31T05:44:33.247Z,51.70
2019-03-31T05:45:41.272Z,51.60
2019-03-31T05:46:49.305Z,51.70
2019-03-31T05:47:57.327Z,51.70
2019-03-31T05:49:05.347Z,51.70
2019-03-31T05:50:14.449Z,51.80
2019-03-31T05:51:22.455Z,51.90
2019-03-31T05:52:30.477Z,52.00
2019-03-31T05:53:38.517Z,52.00
2019-03-31T05:54:46.536Z,51.90
2019-03-31T05:55:54.571Z,52.00
2019-03-31T05:57:02.817Z,52.00
2019-03-31T05:58:10.900Z,52.00
2019-03-31T05:59:18.934Z,52.10
2019-03-31T06:00:40.878Z,52.30
2019-03-31T06:01:48.884Z,52.50
2019-03-31T06:02:56.876Z,52.50
2019-03-31T06:04:04.896Z,52.70
2019-03-31T06:05:13.982Z,52.70
2019-03-31T06:06:22.199Z,52.70
2019-03-31T06:07:30.250Z,52.90
2019-03-31T06:08:38.301Z,53.00
2019-03-31T06:09:46.356Z,53.10
2019-03-31T06:10:56.130Z,53.30
2019-03-31T06:12:04.168Z,53.20
2019-03-31T06:13:12.205Z,53.40
2019-03-31T06:14:20.223Z,53.30
2019-03-31T06:15:28.321Z,53.40
2019-03-31T06:16:36.406Z,53.40
2019-03-31T06:17:44.439Z,53.60
2019-03-31T06:18:52.460Z,53.80
2019-03-31T06:20:00.517Z,54.00
2019-03-31T06:21:08.670Z,54.30
2019-03-31T06:22:16.647Z,54.50
2019-03-31T06:23:24.682Z,54.60
2019-03-31T06:24:32.705Z,54.70
2019-03-31T06:25:40.804Z,54.90
2019-03-31T06:26:48.874Z,54.80
2019-03-31T06:27:57.104Z,55.10
2019-03-31T06:29:05.129Z,55.20
2019-03-31T06:30:14.119Z,55.30
2019-03-31T06:31:22.157Z,55.30
2019-03-31T06:32:30.196Z,55.40
2019-03-31T06:33:39.163Z,55.60
2019-03-31T06:34:48.038Z,55.50
2019-03-31T06:35:56.154Z,55.30
2019-03-31T06:37:04.309Z,55.30
2019-03-31T06:38:12.396Z,55.50
2019-03-31T06:39:20.445Z,55.50
2019-03-31T06:40:28.463Z,55.70
2019-03-31T06:41:37.599Z,56.00
2019-03-31T06:42:45.692Z,56.40
2019-03-31T06:43:53.685Z,56.20
2019-03-31T06:45:01.693Z,56.00
2019-03-31T06:46:09.787Z,55.80
2019-03-31T06:47:17.809Z,55.90
2019-03-31T06:48:25.831Z,55.90
2019-03-31T06:49:33.853Z,56.00
2019-03-31T06:50:41.890Z,56.10
2019-03-31T06:51:49.971Z,56.10
2019-03-31T06:52:58.019Z,55.90
2019-03-31T06:54:06.034Z,55.90
2019-03-31T06:55:14.039Z,55.80
2019-03-31T06:56:22.033Z,55.70
2019-03-31T06:57:30.065Z,55.50
2019-03-31T06:58:38.165Z,55.40
2019-03-31T06:59:46.127Z,55.60
2019-03-31T07:00:54.132Z,55.30
2019-03-31T07:02:03.158Z,55.40
2019-03-31T07:03:11.705Z,55.30
2019-03-31T07:04:19.861Z,55.30
2019-03-31T07:05:27.915Z,55.30
2019-03-31T07:06:35.999Z,55.40
2019-03-31T07:07:44.032Z,55.50
2019-03-31T07:08:52.054Z,55.60
2019-03-31T07:10:00.310Z,55.80
2019-03-31T07:11:08.524Z,55.80
2019-03-31T07:12:16.528Z,55.90
2019-03-31T07:13:24.520Z,55.90
2019-03-31T07:14:32.538Z,56.00
2019-03-31T07:15:40.621Z,55.80
2019-03-31T07:16:48.658Z,55.50
2019-03-31T07:17:56.681Z,55.50
2019-03-31T07:19:04.722Z,55.50
2019-03-31T07:20:13.833Z,55.50
2019-03-31T07:21:21.907Z,55.50
2019-03-31T07:22:29.924Z,55.30
2019-03-31T07:23:39.115Z,55.20
2019-03-31T07:24:47.151Z,55.30
2019-03-31T07:25:55.194Z,55.80
2019-03-31T07:27:03.362Z,55.20
2019-03-31T07:28:11.380Z,55.10
2019-03-31T07:29:19.643Z,54.90
2019-03-31T07:30:28.293Z,54.40
2019-03-31T07:31:36.371Z,54.30
2019-03-31T07:32:44.359Z,54.50
2019-03-31T07:33:52.376Z,53.70
2019-03-31T07:35:00.398Z,53.40
2019-03-31T07:36:08.446Z,53.30
2019-03-31T07:37:16.480Z,52.90
2019-03-31T07:38:38.036Z,52.80
2019-03-31T07:39:34.537Z,52.50
2019-03-31T07:40:42.639Z,52.40
2019-03-31T07:41:51.044Z,52.40
2019-03-31T07:42:59.152Z,52.40
2019-03-31T07:44:07.232Z,52.30
2019-03-31T07:45:18.270Z,52.10
2019-03-31T07:46:26.318Z,51.90
2019-03-31T07:47:34.360Z,51.90
2019-03-31T07:48:42.375Z,52.00
2019-03-31T07:49:50.337Z,51.60
2019-03-31T07:50:58.402Z,51.50
2019-03-31T07:52:06.423Z,51.70
2019-03-31T07:53:14.446Z,52.10
2019-03-31T07:54:24.054Z,52.10
2019-03-31T07:55:32.181Z,51.90
2019-03-31T07:56:40.203Z,51.70
2019-03-31T07:57:48.262Z,51.50
2019-03-31T07:58:56.353Z,51.10
2019-03-31T08:00:04.854Z,50.40
2019-03-31T08:01:12.887Z,50.20
2019-03-31T08:02:21.032Z,49.90
2019-03-31T08:03:29.094Z,49.20
2019-03-31T08:04:38.195Z,49.30
2019-03-31T08:05:46.322Z,49.20
2019-03-31T08:06:54.387Z,48.90
2019-03-31T08:08:02.410Z,48.50
2019-03-31T08:09:10.465Z,48.20
2019-03-31T08:10:20.505Z,48.20
2019-03-31T08:11:28.559Z,48.30
2019-03-31T08:12:36.594Z,48.20
2019-03-31T08:13:44.613Z,48.20
2019-03-31T08:14:52.650Z,48.40
2019-03-31T08:16:00.655Z,48.30
2019-03-31T08:17:08.663Z,48.00
2019-03-31T08:18:16.673Z,48.20
2019-03-31T08:19:24.712Z,48.30
2019-03-31T08:20:34.526Z,48.40
2019-03-31T08:21:42.653Z,48.20
2019-03-31T08:22:50.673Z,47.80
2019-03-31T08:23:59.766Z,47.70
2019-03-31T08:25:09.327Z,47.70
2019-03-31T08:26:17.362Z,47.40
2019-03-31T08:27:25.358Z,47.50
2019-03-31T08:28:33.510Z,47.10
2019-03-31T08:29:41.601Z,46.70
2019-03-31T08:30:49.628Z,46.80
2019-03-31T08:31:57.588Z,47.00
2019-03-31T08:33:06.586Z,47.20
2019-03-31T08:34:14.622Z,46.70
2019-03-31T08:35:22.627Z,46.70
2019-03-31T08:36:30.648Z,46.90
2019-03-31T08:37:38.701Z,47.00
2019-03-31T08:38:46.751Z,47.10
2019-03-31T08:39:54.800Z,47.00
2019-03-31T08:41:02.797Z,46.80
2019-03-31T08:42:10.789Z,47.20
2019-03-31T08:43:18.838Z,47.50
2019-03-31T08:44:26.856Z,47.50
2019-03-31T08:45:35.854Z,47.40
2019-03-31T08:46:43.892Z,47.50
2019-03-31T08:47:51.925Z,47.00
2019-03-31T08:49:01.062Z,46.50
2019-03-31T08:50:09.559Z,46.40
2019-03-31T08:51:17.610Z,46.10
2019-03-31T08:52:25.706Z,45.90
2019-03-31T08:53:33.745Z,46.00
2019-03-31T08:54:42.071Z,46.20
2019-03-31T08:55:50.100Z,46.30
2019-03-31T08:57:00.149Z,46.60
2019-03-31T08:58:08.154Z,46.90
2019-03-31T08:59:16.163Z,47.10
2019-03-31T09:00:30.947Z,46.70
2019-03-31T09:01:41.370Z,46.00
2019-03-31T09:02:50.183Z,45.60
2019-03-31T09:03:58.206Z,45.10
2019-03-31T09:05:08.582Z,45.10
2019-03-31T09:06:16.649Z,45.20
2019-03-31T09:07:25.097Z,44.90
2019-03-31T09:08:33.521Z,44.80
2019-03-31T09:09:41.582Z,44.50
2019-03-31T09:10:49.635Z,44.20
2019-03-31T09:11:57.687Z,44.30
2019-03-31T09:13:05.807Z,44.10
2019-03-31T09:14:14.102Z,44.40
2019-03-31T09:15:22.138Z,44.30
2019-03-31T09:16:30.283Z,44.10
2019-03-31T09:17:39.415Z,44.60
2019-03-31T09:18:47.462Z,44.20
2019-03-31T09:19:55.513Z,44.00
2019-03-31T09:21:03.538Z,43.70
2019-03-31T09:22:11.752Z,43.70
2019-03-31T09:23:19.760Z,43.40
2019-03-31T09:24:28.190Z,43.40
2019-03-31T09:25:36.489Z,43.30
2019-03-31T09:26:44.498Z,43.00
2019-03-31T09:27:52.531Z,42.60
2019-03-31T09:29:00.748Z,42.30
2019-03-31T09:30:11.476Z,42.50
2019-03-31T09:31:20.331Z,42.80
2019-03-31T09:32:28.400Z,42.70
2019-03-31T09:33:39.305Z,42.60
2019-03-31T09:34:46.196Z,41.70
2019-03-31T09:35:54.340Z,41.80
2019-03-31T09:37:02.448Z,41.70
2019-03-31T09:38:10.544Z,42.60
2019-03-31T09:39:18.778Z,41.90
2019-03-31T09:40:26.992Z,43.00
2019-03-31T09:41:35.034Z,43.20
2019-03-31T09:42:43.034Z,42.60
2019-03-31T09:43:51.037Z,42.50
2019-03-31T09:44:59.110Z,42.40
2019-03-31T09:46:07.143Z,42.70
2019-03-31T09:47:15.234Z,42.40
2019-03-31T09:48:23.303Z,42.90
2019-03-31T09:49:31.329Z,42.40
2019-03-31T09:50:39.346Z,42.20
2019-03-31T09:51:47.396Z,41.60
2019-03-31T09:52:55.432Z,41.20
2019-03-31T09:54:03.454Z,40.70
2019-03-31T09:55:12.155Z,40.50
2019-03-31T09:56:20.201Z,40.40
2019-03-31T09:57:28.254Z,40.90
2019-03-31T09:58:36.321Z,41.50
2019-03-31T09:59:44.317Z,41.30
2019-03-31T10:00:53.095Z,41.00
2019-03-31T10:02:01.117Z,40.30
2019-03-31T10:03:09.153Z,40.00
2019-03-31T10:04:17.189Z,39.10
2019-03-31T10:05:25.243Z,39.50
2019-03-31T10:06:33.669Z,39.20
2019-03-31T10:07:42.330Z,40.30
2019-03-31T10:08:50.984Z,40.30
2019-03-31T10:10:00.465Z,40.90
2019-03-31T10:11:08.588Z,41.10
2019-03-31T10:12:16.595Z,40.60
2019-03-31T10:13:24.613Z,40.20
2019-03-31T10:14:32.650Z,40.40
2019-03-31T10:15:40.702Z,41.00
2019-03-31T10:16:48.994Z,40.70
2019-03-31T10:17:58.097Z,40.00
2019-03-31T10:19:06.160Z,39.10
2019-03-31T10:20:14.317Z,39.10
2019-03-31T10:21:22.712Z,38.70
2019-03-31T10:22:31.499Z,38.80
2019-03-31T10:23:39.849Z,39.20
2019-03-31T10:24:47.887Z,39.40
2019-03-31T10:25:57.003Z,40.20
2019-03-31T10:27:05.041Z,39.40
2019-03-31T10:28:13.090Z,38.80
2019-03-31T10:29:21.154Z,38.70
2019-03-31T10:30:37.082Z,39.20
2019-03-31T10:31:46.619Z,39.20
2019-03-31T10:32:54.655Z,38.80
2019-03-31T10:34:02.887Z,38.10
2019-03-31T10:35:12.740Z,38.40
2019-03-31T10:36:20.817Z,39.00
2019-03-31T10:37:29.201Z,38.30
2019-03-31T10:38:37.244Z,38.40
2019-03-31T10:39:45.275Z,37.50
2019-03-31T10:40:53.295Z,36.80
2019-03-31T10:42:01.363Z,36.00
2019-03-31T10:43:09.987Z,35.90
2019-03-31T10:44:21.294Z,36.30
2019-03-31T10:45:29.281Z,36.10
2019-03-31T10:46:37.348Z,35.60
2019-03-31T10:47:45.394Z,35.10
2019-03-31T10:48:53.407Z,34.60
2019-03-31T10:50:01.427Z,35.10
2019-03-31T10:51:09.747Z,35.00
2019-03-31T10:52:19.793Z,34.70
2019-03-31T10:53:27.814Z,34.90
2019-03-31T10:54:36.902Z,34.80
2019-03-31T10:55:44.952Z,34.20
2019-03-31T10:56:52.988Z,34.20
2019-03-31T10:58:01.025Z,33.60
2019-03-31T10:59:09.063Z,32.90
2019-03-31T11:00:20.631Z,33.10
2019-03-31T11:01:28.628Z,33.20
2019-03-31T11:02:36.664Z,32.60
2019-03-31T11:03:44.672Z,32.40
2019-03-31T11:04:52.676Z,32.50
2019-03-31T11:06:00.893Z,31.80
2019-03-31T11:07:08.917Z,31.70
2019-03-31T11:08:16.935Z,31.70
2019-03-31T11:09:27.658Z,31.60
2019-03-31T11:10:37.252Z,31.90
2019-03-31T11:11:45.259Z,33.10
2019-03-31T11:12:53.281Z,33.10
2019-03-31T11:14:01.290Z,33.10
2019-03-31T11:15:09.427Z,32.80
2019-03-31T11:16:17.434Z,32.50
2019-03-31T11:17:25.514Z,32.60
2019-03-31T11:18:33.550Z,32.10
2019-03-31T11:19:41.602Z,31.50
2019-03-31T11:20:49.626Z,31.90
2019-03-31T11:22:02.988Z,31.50
2019-03-31T11:23:19.185Z,31.20
2019-03-31T11:24:27.610Z,31.90
2019-03-31T11:25:35.630Z,31.20
2019-03-31T11:26:43.652Z,31.00
2019-03-31T11:27:52.306Z,31.00
2019-03-31T11:29:00.327Z,31.10
2019-03-31T11:30:09.455Z,31.10
2019-03-31T11:31:18.608Z,30.90
2019-03-31T11:32:26.622Z,31.60
2019-03-31T11:33:34.629Z,31.70
2019-03-31T11:34:42.650Z,32.00
2019-03-31T11:35:51.651Z,31.80
2019-03-31T11:37:13.022Z,32.00
2019-03-31T11:38:09.398Z,31.80
2019-03-31T11:39:17.419Z,31.50
2019-03-31T11:40:25.425Z,31.20
2019-03-31T11:41:52.290Z,31.60
2019-03-31T11:43:00.341Z,32.40
2019-03-31T11:44:08.361Z,32.70
2019-03-31T11:45:16.701Z,32.40
2019-03-31T11:46:24.725Z,33.00
2019-03-31T11:47:32.770Z,33.50
2019-03-31T11:48:40.779Z,33.10
2019-03-31T11:49:48.813Z,33.20
2019-03-31T11:50:56.822Z,32.20
2019-03-31T11:52:05.919Z,31.20
2019-03-31T11:53:13.940Z,30.70
2019-03-31T11:54:21.998Z,30.20
2019-03-31T11:55:30.000Z,29.80
2019-03-31T11:56:38.019Z,29.80
2019-03-31T11:57:46.046Z,29.80
2019-03-31T11:58:54.059Z,30.40
2019-03-31T12:00:02.095Z,30.60
2019-03-31T12:01:11.181Z,30.80
2019-03-31T12:02:26.911Z,30.70
2019-03-31T12:03:31.011Z,30.80
2019-03-31T12:04:38.650Z,30.90
2019-03-31T12:05:46.670Z,31.20
2019-03-31T12:06:54.722Z,31.50
2019-03-31T12:08:02.714Z,30.80
2019-03-31T12:09:10.824Z,31.50
2019-03-31T12:10:20.086Z,31.40
2019-03-31T12:11:28.352Z,31.30
2019-03-31T12:12:37.980Z,31.40
2019-03-31T12:13:45.985Z,31.40
2019-03-31T12:15:00.415Z,30.30
2019-03-31T12:16:03.725Z,30.40
2019-03-31T12:17:11.771Z,30.80
2019-03-31T12:18:19.796Z,30.50
2019-03-31T12:19:27.818Z,30.40
2019-03-31T12:20:35.836Z,29.70
2019-03-31T12:21:43.841Z,29.40
2019-03-31T12:22:51.897Z,29.10
2019-03-31T12:23:59.915Z,29.30
2019-03-31T12:25:08.896Z,29.70
2019-03-31T12:26:16.937Z,30.00
2019-03-31T12:27:24.967Z,30.00
2019-03-31T12:28:32.973Z,30.10
2019-03-31T12:29:40.997Z,30.10
2019-03-31T12:30:49.018Z,30.20
2019-03-31T12:31:57.357Z,29.80
2019-03-31T12:33:05.388Z,29.50
2019-03-31T12:34:13.394Z,29.00
2019-03-31T12:35:21.416Z,29.00
2019-03-31T12:36:29.411Z,28.90
2019-03-31T12:37:42.611Z,28.40
2019-03-31T12:38:47.119Z,28.40
2019-03-31T12:39:55.138Z,28.20
2019-03-31T12:41:03.551Z,29.00
2019-03-31T12:42:11.585Z,28.50
2019-03-31T12:43:19.608Z,28.10
2019-03-31T12:44:27.671Z,27.90
2019-03-31T12:45:36.653Z,28.00
2019-03-31T12:46:44.687Z,28.30
2019-03-31T12:47:52.713Z,28.40
2019-03-31T12:49:00.729Z,28.50
2019-03-31T12:50:09.187Z,28.80
2019-03-31T12:51:17.208Z,28.80
2019-03-31T12:52:25.244Z,28.80
2019-03-31T12:53:33.280Z,28.60
2019-03-31T12:54:41.302Z,28.40
2019-03-31T12:56:00.033Z,28.90
2019-03-31T12:56:59.041Z,28.60
2019-03-31T12:58:07.256Z,28.90
2019-03-31T12:59:15.284Z,28.80
2019-03-31T13:00:23.582Z,28.60
2019-03-31T13:01:31.619Z,28.60
2019-03-31T13:02:39.656Z,28.90
2019-03-31T13:03:47.693Z,28.90
2019-03-31T13:04:55.698Z,28.70
2019-03-31T13:06:03.705Z,28.80
2019-03-31T13:07:14.780Z,28.70
2019-03-31T13:08:21.460Z,28.70
2019-03-31T13:09:29.480Z,28.70
2019-03-31T13:10:37.492Z,28.60
2019-03-31T13:11:45.525Z,28.80
2019-03-31T13:12:53.558Z,29.20
2019-03-31T13:14:01.584Z,29.40
2019-03-31T13:15:09.814Z,29.20
2019-03-31T13:16:17.818Z,29.20
2019-03-31T13:17:25.839Z,29.20
2019-03-31T13:18:33.874Z,29.20
2019-03-31T13:19:41.881Z,29.10
2019-03-31T13:20:50.292Z,29.00
2019-03-31T13:21:58.317Z,28.60
2019-03-31T13:23:06.322Z,28.70
2019-03-31T13:24:14.356Z,28.70
2019-03-31T13:25:22.379Z,28.10
2019-03-31T13:26:30.395Z,28.20
2019-03-31T13:27:38.438Z,28.40
2019-03-31T13:28:46.380Z,28.50
2019-03-31T13:29:54.449Z,28.50
2019-03-31T13:31:02.441Z,28.00
2019-03-31T13:32:10.458Z,27.70
2019-03-31T13:33:18.481Z,27.40
2019-03-31T13:34:26.530Z,28.00
2019-03-31T13:35:34.588Z,27.80
2019-03-31T13:36:42.618Z,28.00
2019-03-31T13:37:50.640Z,27.70
2019-03-31T13:38:58.690Z,27.50
2019-03-31T13:40:07.402Z,27.10
2019-03-31T13:41:15.440Z,27.20
2019-03-31T13:42:23.447Z,27.00
2019-03-31T13:43:31.455Z,26.50
2019-03-31T13:44:39.462Z,26.60
2019-03-31T13:45:47.479Z,26.30
2019-03-31T13:46:55.500Z,26.10
2019-03-31T13:48:03.558Z,26.40
2019-03-31T13:49:11.576Z,26.80
2019-03-31T13:50:19.804Z,27.10
2019-03-31T13:51:28.891Z,27.40
2019-03-31T13:52:37.216Z,27.40
2019-03-31T13:53:45.236Z,27.00
2019-03-31T13:54:54.326Z,26.80
2019-03-31T13:56:02.357Z,27.20
2019-03-31T13:57:10.937Z,27.10
2019-03-31T13:58:19.497Z,26.70
2019-03-31T13:59:28.414Z,26.80
2019-03-31T14:00:39.555Z,26.90
2019-03-31T14:01:47.699Z,26.60
2019-03-31T14:02:55.735Z,26.20
2019-03-31T14:04:04.005Z,26.10
2019-03-31T14:05:12.271Z,26.00
2019-03-31T14:06:20.293Z,25.70
2019-03-31T14:07:28.306Z,25.40
2019-03-31T14:08:37.372Z,25.60
2019-03-31T14:09:45.407Z,25.40
2019-03-31T14:10:53.520Z,25.60
2019-03-31T14:12:01.545Z,25.30
2019-03-31T14:13:09.561Z,25.20
2019-03-31T14:14:17.598Z,25.10
2019-03-31T14:15:25.649Z,25.10
2019-03-31T14:16:33.686Z,25.10
2019-03-31T14:17:41.692Z,25.00
2019-03-31T14:18:49.798Z,24.80
2019-03-31T14:19:57.843Z,24.70
2019-03-31T14:21:05.863Z,24.80
2019-03-31T14:22:13.883Z,24.60
2019-03-31T14:23:21.891Z,24.50
2019-03-31T14:24:29.908Z,24.40
2019-03-31T14:25:37.949Z,24.30
2019-03-31T14:26:47.760Z,24.80
2019-03-31T14:27:55.683Z,25.30
2019-03-31T14:29:03.696Z,25.60
2019-03-31T14:30:12.294Z,25.40
2019-03-31T14:31:20.306Z,25.20
2019-03-31T14:32:28.337Z,25.60
2019-03-31T14:33:36.373Z,25.30
2019-03-31T14:34:44.381Z,25.20
2019-03-31T14:35:52.400Z,25.80
2019-03-31T14:37:00.534Z,25.90
2019-03-31T14:38:08.547Z,25.70
2019-03-31T14:39:17.256Z,25.90
2019-03-31T14:40:25.446Z,26.20
2019-03-31T14:41:33.456Z,25.80